createdAt,value
2022-08-17T00:00:38.036Z,16.54
2022-08-17T00:03:17.494Z,16.53
2022-08-17T00:05:53.507Z,16.50
2022-08-17T00:08:23.196Z,16.48
2022-08-17T00:10:51.906Z,16.46
2022-08-17T00:13:24.044Z,16.44
2022-08-17T00:15:54.621Z,16.42
2022-08-17T00:19:02.140Z,16.40
2022-08-17T00:21:11.964Z,16.37
2022-08-17T00:23:47.857Z,16.34
2022-08-17T00:26:44.352Z,16.31
2022-08-17T00:29:07.490Z,16.28
2022-08-17T00:31:36.376Z,16.26
2022-08-17T00:34:05.421Z,16.23
2022-08-17T00:36:33.241Z,16.20
2022-08-17T00:39:01.089Z,16.16
2022-08-17T00:41:29.539Z,16.12
2022-08-17T00:44:02.034Z,16.09
2022-08-17T00:46:31.955Z,16.06
2022-08-17T00:49:00.436Z,16.03
2022-08-17T00:51:46.769Z,16.01
2022-08-17T00:54:42.017Z,15.97
2022-08-17T00:57:17.796Z,15.93
2022-08-17T01:00:03.076Z,15.91
2022-08-17T01:02:40.354Z,15.89
2022-08-17T01:05:23.732Z,15.87
2022-08-17T01:07:53.863Z,15.86
2022-08-17T01:11:00.423Z,15.83
2022-08-17T01:13:14.338Z,15.82
2022-08-17T01:15:46.636Z,15.81
2022-08-17T01:18:14.949Z,15.79
2022-08-17T01:20:48.570Z,15.78
2022-08-17T01:23:20.504Z,15.75
2022-08-17T01:25:57.032Z,15.72
2022-08-17T01:28:52.567Z,15.71
2022-08-17T01:31:14.804Z,15.68
2022-08-17T01:33:42.786Z,15.64
2022-08-17T01:36:10.903Z,15.60
2022-08-17T01:38:39.396Z,15.58
2022-08-17T01:41:11.398Z,15.57
2022-08-17T01:43:47.717Z,15.56
2022-08-17T01:46:21.266Z,15.55
2022-08-17T01:48:51.259Z,15.53
2022-08-17T01:51:20.611Z,15.50
2022-08-17T01:53:50.444Z,15.47
2022-08-17T01:56:20.052Z,15.44
2022-08-17T01:58:47.984Z,15.41
2022-08-17T02:01:18.729Z,15.40
2022-08-17T02:03:56.202Z,15.38
2022-08-17T02:06:52.410Z,15.36
2022-08-17T02:09:25.838Z,15.34
2022-08-17T02:11:54.474Z,15.31
2022-08-17T02:14:23.447Z,15.29
2022-08-17T02:16:51.903Z,15.28
2022-08-17T02:19:20.051Z,15.25
2022-08-17T02:21:49.524Z,15.22
2022-08-17T02:25:00.688Z,15.21
2022-08-17T02:27:08.493Z,15.18
2022-08-17T02:29:37.364Z,15.18
2022-08-17T02:32:05.521Z,15.16
2022-08-17T02:34:33.448Z,15.15
2022-08-17T02:37:03.506Z,15.13
2022-08-17T02:39:31.568Z,15.12
2022-08-17T02:42:03.353Z,15.09
2022-08-17T02:44:38.873Z,15.03
2022-08-17T02:47:08.885Z,14.99
2022-08-17T02:49:37.423Z,14.96
2022-08-17T02:52:06.708Z,14.95
2022-08-17T02:54:39.900Z,14.94
2022-08-17T02:57:10.797Z,14.92
2022-08-17T02:59:39.591Z,14.91
2022-08-17T03:02:08.489Z,14.89
2022-08-17T03:04:37.023Z,14.88
2022-08-17T03:07:05.301Z,14.87
2022-08-17T03:09:33.271Z,14.85
2022-08-17T03:12:09.212Z,14.84
2022-08-17T03:14:41.436Z,14.82
2022-08-17T03:17:10.655Z,14.81
2022-08-17T03:19:42.244Z,14.79
2022-08-17T03:22:35.713Z,14.79
2022-08-17T03:24:59.159Z,14.77
2022-08-17T03:27:27.572Z,14.78
2022-08-17T03:29:55.414Z,14.77
2022-08-17T03:32:23.398Z,14.76
2022-08-17T03:34:51.469Z,14.73
2022-08-17T03:37:21.079Z,14.72
2022-08-17T03:39:49.403Z,14.71
2022-08-17T03:42:31.962Z,14.72
2022-08-17T03:45:03.954Z,14.73
2022-08-17T03:47:50.754Z,14.75
2022-08-17T03:50:37.683Z,14.76
2022-08-17T03:53:28.577Z,14.78
2022-08-17T03:56:17.851Z,14.81
2022-08-17T03:58:46.013Z,14.83
2022-08-17T04:01:14.161Z,14.87
2022-08-17T04:03:42.040Z,14.90
2022-08-17T04:06:09.888Z,14.95
2022-08-17T04:08:37.994Z,14.99
2022-08-17T04:11:06.116Z,15.05
2022-08-17T04:13:33.934Z,15.12
2022-08-17T04:16:02.140Z,15.18
2022-08-17T04:18:30.111Z,15.25
2022-08-17T04:20:58.186Z,15.31
2022-08-17T04:23:32.828Z,15.38
2022-08-17T04:26:02.744Z,15.44
2022-08-17T04:28:31.176Z,15.50
2022-08-17T04:30:59.240Z,15.57
2022-08-17T04:33:28.159Z,15.64
2022-08-17T04:35:58.710Z,15.72
2022-08-17T04:38:30.926Z,15.81
2022-08-17T04:41:18.047Z,15.92
2022-08-17T04:43:47.380Z,16.04
2022-08-17T04:46:17.193Z,16.16
2022-08-17T04:48:46.886Z,16.29
2022-08-17T04:51:20.002Z,16.46
2022-08-17T04:53:54.346Z,16.64
2022-08-17T04:56:25.185Z,16.80
2022-08-17T04:58:54.835Z,17.00
2022-08-17T05:01:24.645Z,17.16
2022-08-17T05:03:53.745Z,17.29
2022-08-17T05:06:21.799Z,17.38
2022-08-17T05:08:50.188Z,17.45
2022-08-17T05:11:18.329Z,17.50
2022-08-17T05:13:46.437Z,17.55
2022-08-17T05:16:14.458Z,17.56
2022-08-17T05:18:42.675Z,17.60
2022-08-17T05:21:10.583Z,17.62
2022-08-17T05:23:42.564Z,17.64
2022-08-17T05:26:19.884Z,17.67
2022-08-17T05:28:56.965Z,17.73
2022-08-17T05:31:25.929Z,17.78
2022-08-17T05:33:53.801Z,17.82
2022-08-17T05:36:43.660Z,17.88
2022-08-17T05:39:10.777Z,17.92
2022-08-17T05:41:44.995Z,17.96
2022-08-17T05:44:12.860Z,17.99
2022-08-17T05:46:42.107Z,18.04
2022-08-17T05:49:11.083Z,18.05
2022-08-17T05:51:45.075Z,18.08
2022-08-17T05:54:21.434Z,18.09
2022-08-17T05:56:52.397Z,18.12
2022-08-17T05:59:26.431Z,18.17
2022-08-17T06:02:15.865Z,18.22
2022-08-17T06:04:49.788Z,18.28
2022-08-17T06:07:25.749Z,18.37
2022-08-17T06:10:13.405Z,18.45
2022-08-17T06:12:41.254Z,18.57
2022-08-17T06:15:12.934Z,18.68
2022-08-17T06:17:41.646Z,18.83
2022-08-17T06:20:11.687Z,19.05
2022-08-17T06:22:46.337Z,19.56
2022-08-17T06:25:26.265Z,21.02
2022-08-17T06:27:58.886Z,23.05
2022-08-17T06:30:29.474Z,25.25
2022-08-17T06:33:24.303Z,27.26
2022-08-17T06:36:02.946Z,29.14
2022-08-17T06:38:46.757Z,31.00
2022-08-17T06:41:18.031Z,32.11
2022-08-17T06:44:01.271Z,32.92
2022-08-17T06:46:29.282Z,33.81
2022-08-17T06:49:09.254Z,34.25
2022-08-17T06:51:43.463Z,34.09
2022-08-17T06:54:15.403Z,33.79
2022-08-17T06:56:55.992Z,33.53
2022-08-17T06:59:55.427Z,33.30
2022-08-17T07:02:18.975Z,33.05
2022-08-17T07:05:01.795Z,32.81
2022-08-17T07:07:48.812Z,32.66
2022-08-17T07:10:17.580Z,32.50
2022-08-17T07:12:46.039Z,32.37
2022-08-17T07:15:20.348Z,32.27
2022-08-17T07:17:48.608Z,32.22
2022-08-17T07:20:20.674Z,32.21
2022-08-17T07:23:01.923Z,32.15
2022-08-17T07:25:30.906Z,32.01
2022-08-17T07:28:00.798Z,31.81
2022-08-17T07:30:47.265Z,31.43
2022-08-17T07:33:20.350Z,31.07
2022-08-17T07:35:50.170Z,30.78
2022-08-17T07:38:25.834Z,30.48
2022-08-17T07:41:05.379Z,30.18
2022-08-17T07:43:33.310Z,29.94
2022-08-17T07:46:35.368Z,29.73
2022-08-17T07:49:08.919Z,29.57
2022-08-17T07:51:37.518Z,29.52
2022-08-17T07:54:25.924Z,29.48
2022-08-17T07:56:55.384Z,29.48
2022-08-17T07:59:25.491Z,29.55
2022-08-17T08:01:57.479Z,29.51
2022-08-17T08:05:01.412Z,29.36
2022-08-17T08:07:34.854Z,29.30
2022-08-17T08:10:10.961Z,29.40
2022-08-17T08:12:46.507Z,29.57
2022-08-17T08:15:26.308Z,29.69
2022-08-17T08:17:57.656Z,29.75
2022-08-17T08:20:51.059Z,29.78
2022-08-17T08:23:21.479Z,29.87
2022-08-17T08:26:09.574Z,29.85
2022-08-17T08:28:53.419Z,29.46
2022-08-17T08:31:42.078Z,28.77
2022-08-17T08:34:49.700Z,28.36
2022-08-17T08:37:32.667Z,28.39
2022-08-17T08:40:08.569Z,28.47
2022-08-17T08:42:36.789Z,28.62
2022-08-17T08:45:43.508Z,28.74
2022-08-17T08:48:22.981Z,29.02
2022-08-17T08:51:19.938Z,29.17
2022-08-17T08:53:54.102Z,29.25
2022-08-17T08:56:22.109Z,29.40
2022-08-17T08:58:56.823Z,29.56
2022-08-17T09:01:27.714Z,29.78
2022-08-17T09:04:26.086Z,30.01
2022-08-17T09:07:06.313Z,30.32
2022-08-17T09:09:47.286Z,30.48
2022-08-17T09:12:22.151Z,30.74
2022-08-17T09:15:12.988Z,30.92
2022-08-17T09:17:55.725Z,31.07
2022-08-17T09:20:50.170Z,31.07
2022-08-17T09:23:25.495Z,31.13
2022-08-17T09:26:05.500Z,31.31
2022-08-17T09:28:38.008Z,31.49
2022-08-17T09:31:11.421Z,31.63
2022-08-17T09:33:44.600Z,31.83
2022-08-17T09:36:17.174Z,31.99
2022-08-17T09:39:03.631Z,32.15
2022-08-17T09:41:31.544Z,32.30
2022-08-17T09:44:04.441Z,32.16
2022-08-17T09:46:38.946Z,32.08
2022-08-17T09:49:10.737Z,32.13
2022-08-17T09:51:41.952Z,32.21
2022-08-17T09:54:38.113Z,32.17
2022-08-17T09:57:28.625Z,32.07
2022-08-17T09:59:55.444Z,31.97
2022-08-17T10:02:30.005Z,31.98
2022-08-17T10:05:08.999Z,32.01
2022-08-17T10:07:42.619Z,31.99
2022-08-17T10:10:33.662Z,31.89
2022-08-17T10:13:18.761Z,31.90
2022-08-17T10:16:03.117Z,31.94
2022-08-17T10:18:49.638Z,32.05
2022-08-17T10:21:37.184Z,32.16
2022-08-17T10:25:21.492Z,32.22
2022-08-17T10:27:48.996Z,32.37
2022-08-17T10:30:18.462Z,32.47
2022-08-17T10:32:48.852Z,32.53
2022-08-17T10:35:26.158Z,32.61
2022-08-17T10:37:56.816Z,32.58
2022-08-17T10:40:43.142Z,32.28
2022-08-17T10:43:29.532Z,32.15
2022-08-17T10:46:09.249Z,32.21
2022-08-17T10:48:47.447Z,32.23
2022-08-17T10:51:38.067Z,32.11
2022-08-17T10:54:07.683Z,32.10
2022-08-17T10:56:46.939Z,32.16
2022-08-17T10:59:33.570Z,32.22
2022-08-17T11:02:04.627Z,32.33
2022-08-17T11:04:47.956Z,32.45
2022-08-17T11:07:25.869Z,32.55
2022-08-17T11:10:03.125Z,32.60
2022-08-17T11:12:35.724Z,32.37
2022-08-17T11:15:12.732Z,32.15
2022-08-17T11:17:41.643Z,32.06
2022-08-17T11:20:09.507Z,32.12
2022-08-17T11:22:50.227Z,32.24
2022-08-17T11:25:20.307Z,32.30
2022-08-17T11:27:53.913Z,32.31
2022-08-17T11:30:43.577Z,32.37
2022-08-17T11:33:31.750Z,32.09
2022-08-17T11:36:20.000Z,31.92
2022-08-17T11:39:06.908Z,31.89
2022-08-17T11:41:47.204Z,32.01
2022-08-17T11:44:38.200Z,32.14
2022-08-17T11:47:31.067Z,32.29
2022-08-17T11:50:17.373Z,32.45
2022-08-17T11:52:47.363Z,32.54
2022-08-17T11:55:37.451Z,32.61
2022-08-17T11:58:27.131Z,32.70
2022-08-17T12:01:01.962Z,32.79
2022-08-17T12:03:33.088Z,32.89
2022-08-17T12:06:17.828Z,33.05
2022-08-17T12:08:51.118Z,33.13
2022-08-17T12:12:11.140Z,33.19
2022-08-17T12:14:39.915Z,33.27
2022-08-17T12:17:26.504Z,33.34
2022-08-17T12:20:29.298Z,33.37
2022-08-17T12:23:01.175Z,33.32
2022-08-17T12:25:45.343Z,33.35
2022-08-17T12:28:25.252Z,33.34
2022-08-17T12:30:54.286Z,33.14
2022-08-17T12:33:28.118Z,33.04
2022-08-17T12:35:59.704Z,33.04
2022-08-17T12:38:32.288Z,33.12
2022-08-17T12:41:25.358Z,33.22
2022-08-17T12:43:58.727Z,33.13
2022-08-17T12:46:26.811Z,33.08
2022-08-17T12:48:59.676Z,33.14
2022-08-17T12:51:29.399Z,33.19
2022-08-17T12:53:57.399Z,33.22
2022-08-17T12:56:25.792Z,33.21
2022-08-17T12:58:55.603Z,33.15
2022-08-17T13:01:25.296Z,33.12
2022-08-17T13:03:54.897Z,33.05
2022-08-17T13:06:32.413Z,32.93
2022-08-17T13:09:14.154Z,32.77
2022-08-17T13:11:49.612Z,32.55
2022-08-17T13:14:20.651Z,32.47
2022-08-17T13:16:51.432Z,32.43
2022-08-17T13:19:40.006Z,32.41
2022-08-17T13:22:11.198Z,32.39
2022-08-17T13:24:49.523Z,32.37
2022-08-17T13:27:20.335Z,32.32
2022-08-17T13:29:53.781Z,32.26
2022-08-17T13:32:23.308Z,32.23
2022-08-17T13:35:13.811Z,32.23
2022-08-17T13:37:57.142Z,32.30
2022-08-17T13:40:35.998Z,32.36
2022-08-17T13:43:04.277Z,32.29
2022-08-17T13:45:43.562Z,32.27
2022-08-17T13:48:18.845Z,32.27
2022-08-17T13:50:55.732Z,32.22
2022-08-17T13:53:31.588Z,32.12
2022-08-17T13:56:03.437Z,32.13
2022-08-17T13:58:33.352Z,32.22
2022-08-17T14:01:19.784Z,32.25
2022-08-17T14:03:47.726Z,32.16
2022-08-17T14:06:52.612Z,32.11
2022-08-17T14:09:08.342Z,32.01
2022-08-17T14:11:36.526Z,31.96
2022-08-17T14:14:04.518Z,31.85
2022-08-17T14:16:32.372Z,31.61
2022-08-17T14:19:00.223Z,31.50
2022-08-17T14:21:28.089Z,31.28
2022-08-17T14:23:56.105Z,31.08
2022-08-17T14:26:24.020Z,30.87
2022-08-17T14:28:54.729Z,30.72
2022-08-17T14:31:25.119Z,30.59
2022-08-17T14:33:53.012Z,30.47
2022-08-17T14:36:21.028Z,30.27
2022-08-17T14:38:48.955Z,30.05
2022-08-17T14:41:22.021Z,29.91
2022-08-17T14:43:52.967Z,29.78
2022-08-17T14:46:20.812Z,29.65
2022-08-17T14:48:55.207Z,29.60
2022-08-17T14:51:26.537Z,29.53
2022-08-17T14:53:54.504Z,29.50
2022-08-17T14:56:23.033Z,29.46
2022-08-17T14:58:51.954Z,29.42
2022-08-17T15:01:21.021Z,29.37
2022-08-17T15:03:49.079Z,29.29
2022-08-17T15:06:17.140Z,29.22
2022-08-17T15:08:45.011Z,29.12
2022-08-17T15:11:14.527Z,29.03
2022-08-17T15:13:52.824Z,28.96
2022-08-17T15:16:21.599Z,28.90
2022-08-17T15:18:50.278Z,28.86
2022-08-17T15:21:18.824Z,28.83
2022-08-17T15:23:46.868Z,28.75
2022-08-17T15:26:14.810Z,28.70
2022-08-17T15:28:42.812Z,28.68
2022-08-17T15:31:10.679Z,28.68
2022-08-17T15:33:39.325Z,28.66
2022-08-17T15:36:08.193Z,28.63
2022-08-17T15:38:39.653Z,28.55
2022-08-17T15:41:08.636Z,28.47
2022-08-17T15:43:36.997Z,28.37
2022-08-17T15:46:06.548Z,28.24
2022-08-17T15:48:41.897Z,28.03
2022-08-17T15:51:21.036Z,27.75
2022-08-17T15:53:50.965Z,27.42
2022-08-17T15:56:19.286Z,26.96
2022-08-17T15:58:48.097Z,26.52
2022-08-17T16:01:42.298Z,26.12
2022-08-17T16:04:21.252Z,25.59
2022-08-17T16:06:53.385Z,25.18
2022-08-17T16:09:21.298Z,24.93
2022-08-17T16:11:53.665Z,24.67
2022-08-17T16:14:30.286Z,24.40
2022-08-17T16:17:03.645Z,24.16
2022-08-17T16:19:33.286Z,23.98
2022-08-17T16:22:01.408Z,23.81
2022-08-17T16:24:30.105Z,23.63
2022-08-17T16:26:58.253Z,23.48
2022-08-17T16:29:26.072Z,23.36
2022-08-17T16:31:54.438Z,23.28
2022-08-17T16:34:22.590Z,23.14
2022-08-17T16:36:54.899Z,23.04
2022-08-17T16:39:29.288Z,22.96
2022-08-17T16:41:57.865Z,22.92
2022-08-17T16:44:30.988Z,22.91
2022-08-17T16:47:01.023Z,22.86
2022-08-17T16:49:37.032Z,22.84
2022-08-17T16:52:07.396Z,22.82
2022-08-17T16:54:37.554Z,22.78
2022-08-17T16:57:05.671Z,22.77
2022-08-17T16:59:41.922Z,22.76
2022-08-17T17:02:14.338Z,22.76
2022-08-17T17:04:51.088Z,22.76
2022-08-17T17:07:18.936Z,22.74
2022-08-17T17:09:52.821Z,22.73
2022-08-17T17:12:34.924Z,22.72
2022-08-17T17:15:10.691Z,22.69
2022-08-17T17:17:39.994Z,22.63
2022-08-17T17:20:09.864Z,22.54
2022-08-17T17:22:58.180Z,22.47
2022-08-17T17:25:32.241Z,22.42
2022-08-17T17:28:33.460Z,22.37
2022-08-17T17:31:06.087Z,22.30
2022-08-17T17:33:48.358Z,22.22
2022-08-17T17:36:28.655Z,22.13
2022-08-17T17:39:09.832Z,22.05
2022-08-17T17:41:49.167Z,21.97
2022-08-17T17:44:20.702Z,21.91
2022-08-17T17:46:51.038Z,21.84
2022-08-17T17:49:19.480Z,21.75
2022-08-17T17:52:08.044Z,21.65
2022-08-17T17:54:57.891Z,21.53
2022-08-17T17:57:31.876Z,21.45
2022-08-17T18:00:03.631Z,21.36
2022-08-17T18:02:58.535Z,21.26
2022-08-17T18:05:46.787Z,21.14
2022-08-17T18:08:14.611Z,21.02
2022-08-17T18:10:49.122Z,20.93
2022-08-17T18:13:20.568Z,20.83
2022-08-17T18:15:51.593Z,20.74
2022-08-17T18:18:37.993Z,20.65
2022-08-17T18:21:09.166Z,20.55
2022-08-17T18:23:37.103Z,20.44
2022-08-17T18:26:05.260Z,20.36
2022-08-17T18:28:36.863Z,20.28
2022-08-17T18:31:19.122Z,20.20
2022-08-17T18:33:48.365Z,20.10
2022-08-17T18:36:30.938Z,20.02
2022-08-17T18:39:17.611Z,19.95
2022-08-17T18:41:47.135Z,19.89
2022-08-17T18:44:24.122Z,19.84
2022-08-17T18:47:18.406Z,19.77
2022-08-17T18:49:48.985Z,19.71
2022-08-17T18:52:21.485Z,19.64
2022-08-17T18:55:11.399Z,19.57
2022-08-17T18:57:44.276Z,19.55
2022-08-17T19:00:18.542Z,19.52
2022-08-17T19:02:52.199Z,19.48
2022-08-17T19:05:39.990Z,19.44
2022-08-17T19:08:32.404Z,19.39
2022-08-17T19:11:03.826Z,19.35
2022-08-17T19:13:34.142Z,19.30
2022-08-17T19:16:15.101Z,19.26
2022-08-17T19:18:46.373Z,19.22
2022-08-17T19:21:16.757Z,19.20
2022-08-17T19:23:53.822Z,19.18
2022-08-17T19:26:54.199Z,19.16
2022-08-17T19:29:16.706Z,19.14
2022-08-17T19:31:47.559Z,19.13
2022-08-17T19:34:16.723Z,19.12
2022-08-17T19:37:02.761Z,19.10
2022-08-17T19:39:38.381Z,19.10
2022-08-17T19:42:25.450Z,19.08
2022-08-17T19:45:09.015Z,19.06
2022-08-17T19:47:55.199Z,19.03
2022-08-17T19:50:24.329Z,19.01
2022-08-17T19:52:52.962Z,18.99
2022-08-17T19:55:23.877Z,18.95
2022-08-17T19:58:00.775Z,18.93
2022-08-17T20:00:31.269Z,18.92
2022-08-17T20:02:59.264Z,18.90
2022-08-17T20:05:30.477Z,18.89
2022-08-17T20:08:02.745Z,18.87
2022-08-17T20:10:34.350Z,18.87
2022-08-17T20:13:05.351Z,18.86
2022-08-17T20:15:35.464Z,18.83
2022-08-17T20:18:07.168Z,18.82
2022-08-17T20:20:49.608Z,18.81
2022-08-17T20:23:28.827Z,18.79
2022-08-17T20:26:19.100Z,18.78
2022-08-17T20:29:05.855Z,18.76
2022-08-17T20:31:40.020Z,18.74
2022-08-17T20:34:33.512Z,18.73
2022-08-17T20:37:09.744Z,18.71
2022-08-17T20:39:40.520Z,18.70
2022-08-17T20:42:11.036Z,18.68
2022-08-17T20:44:40.581Z,18.64
2022-08-17T20:47:26.488Z,18.65
2022-08-17T20:49:58.288Z,18.63
2022-08-17T20:52:46.328Z,18.60
2022-08-17T20:55:51.439Z,18.57
2022-08-17T20:58:23.377Z,18.54
2022-08-17T21:00:57.147Z,18.50
2022-08-17T21:03:26.808Z,18.48
2022-08-17T21:06:00.053Z,18.45
2022-08-17T21:08:45.834Z,18.42
2022-08-17T21:12:02.735Z,18.39
2022-08-17T21:14:19.799Z,18.36
2022-08-17T21:17:06.848Z,18.32
2022-08-17T21:20:11.087Z,18.29
2022-08-17T21:22:48.594Z,18.25
2022-08-17T21:25:25.276Z,18.22
2022-08-17T21:28:04.080Z,18.19
2022-08-17T21:30:35.060Z,18.16
2022-08-17T21:33:16.658Z,18.12
2022-08-17T21:35:47.495Z,18.08
2022-08-17T21:38:16.566Z,18.04
2022-08-17T21:40:45.621Z,18.00
2022-08-17T21:43:27.118Z,17.94
2022-08-17T21:46:18.033Z,17.91
2022-08-17T21:48:48.090Z,17.90
2022-08-17T21:51:23.575Z,17.88
2022-08-17T21:53:53.306Z,17.86
2022-08-17T21:56:40.880Z,17.84
2022-08-17T21:59:25.292Z,17.81
2022-08-17T22:01:53.261Z,17.77
2022-08-17T22:04:25.555Z,17.77
2022-08-17T22:06:57.258Z,17.74
2022-08-17T22:09:31.457Z,17.72
2022-08-17T22:12:12.756Z,17.71
2022-08-17T22:14:53.370Z,17.67
2022-08-17T22:17:25.268Z,17.65
2022-08-17T22:19:56.550Z,17.63
2022-08-17T22:22:27.299Z,17.61
2022-08-17T22:24:57.785Z,17.60
2022-08-17T22:27:45.975Z,17.57
2022-08-17T22:30:28.826Z,17.55
2022-08-17T22:32:57.373Z,17.52
2022-08-17T22:35:25.215Z,17.50
2022-08-17T22:37:53.122Z,17.49
2022-08-17T22:40:25.357Z,17.47
2022-08-17T22:42:53.900Z,17.44
2022-08-17T22:45:23.141Z,17.43
2022-08-17T22:47:53.997Z,17.41
2022-08-17T22:50:26.351Z,17.39
2022-08-17T22:53:20.538Z,17.36
2022-08-17T22:56:08.596Z,17.33
2022-08-17T22:59:00.631Z,17.31
2022-08-17T23:01:30.377Z,17.28
2022-08-17T23:04:01.588Z,17.25
2022-08-17T23:06:30.580Z,17.23
2022-08-17T23:08:58.579Z,17.22
2022-08-17T23:11:42.865Z,17.21
2022-08-17T23:14:19.320Z,17.21
2022-08-17T23:16:49.185Z,17.21
2022-08-17T23:19:18.613Z,17.20
2022-08-17T23:21:47.092Z,17.19
2022-08-17T23:24:17.245Z,17.17
2022-08-17T23:26:45.094Z,17.15
2022-08-17T23:29:13.488Z,17.13
2022-08-17T23:31:41.794Z,17.12
2022-08-17T23:34:11.833Z,17.11
2022-08-17T23:36:39.946Z,17.10
2022-08-17T23:39:07.995Z,17.08
2022-08-17T23:41:38.576Z,17.07
2022-08-17T23:44:07.198Z,17.06
2022-08-17T23:46:35.371Z,17.05
2022-08-17T23:49:03.596Z,17.04
2022-08-17T23:51:34.838Z,17.02
2022-08-17T23:54:11.862Z,16.99
2022-08-17T23:56:48.521Z,16.97
2022-08-17T23:59:21.645Z,16.97
